sensor_id;sensor_type;location;lat;lon;timestamp;P1;durP1;ratioP1;P2;durP2;ratioP2
77544;SDS011;66672;50.328;7.610;2023-02-20T00:01:23;6.25;;;2.75;;
77544;SDS011;66672;50.328;7.610;2023-02-20T00:03:49;7.45;;;3.15;;
77544;SDS011;66672;50.328;7.610;2023-02-20T00:06:14;6.78;;;2.90;;
77544;SDS011;66672;50.328;7.610;2023-02-20T00:08:39;8.10;;;3.13;;
77544;SDS011;66672;50.328;7.610;2023-02-20T00:11:05;8.15;;;3.10;;
77544;SDS011;66672;50.328;7.610;2023-02-20T00:13:31;6.30;;;2.78;;
77544;SDS011;66672;50.328;7.610;2023-02-20T00:15:56;6.88;;;2.70;;
77544;SDS011;66672;50.328;7.610;2023-02-20T00:18:21;5.60;;;2.83;;
77544;SDS011;66672;50.328;7.610;2023-02-20T00:20:46;5.90;;;2.67;;
77544;SDS011;66672;50.328;7.610;2023-02-20T00:23:12;7.35;;;2.88;;
77544;SDS011;66672;50.328;7.610;2023-02-20T00:25:37;5.45;;;2.88;;
77544;SDS011;66672;50.328;7.610;2023-02-20T00:28:03;9.20;;;3.40;;
77544;SDS011;66672;50.328;7.610;2023-02-20T00:30:29;8.07;;;3.05;;
77544;SDS011;66672;50.328;7.610;2023-02-20T00:32:54;6.13;;;2.47;;
77544;SDS011;66672;50.328;7.610;2023-02-20T00:35:21;6.20;;;2.55;;
77544;SDS011;66672;50.328;7.610;2023-02-20T00:37:48;7.60;;;2.80;;
77544;SDS011;66672;50.328;7.610;2023-02-20T00:40:14;5.03;;;2.70;;
77544;SDS011;66672;50.328;7.610;2023-02-20T00:42:41;6.50;;;2.77;;
77544;SDS011;66672;50.328;7.610;2023-02-20T00:45:07;8.23;;;2.45;;
77544;SDS011;66672;50.328;7.610;2023-02-20T00:47:33;6.20;;;2.60;;
77544;SDS011;66672;50.328;7.610;2023-02-20T00:49:58;5.57;;;2.60;;
77544;SDS011;66672;50.328;7.610;2023-02-20T00:52:24;6.13;;;2.70;;
77544;SDS011;66672;50.328;7.610;2023-02-20T00:54:49;6.50;;;2.83;;
77544;SDS011;66672;50.328;7.610;2023-02-20T00:57:15;4.93;;;2.40;;
77544;SDS011;66672;50.328;7.610;2023-02-20T00:59:40;4.70;;;2.20;;
77544;SDS011;66672;50.328;7.610;2023-02-20T01:02:06;7.10;;;2.90;;
77544;SDS011;66672;50.328;7.610;2023-02-20T01:04:31;7.65;;;2.90;;
77544;SDS011;66672;50.328;7.610;2023-02-20T01:06:56;6.80;;;2.45;;
77544;SDS011;66672;50.328;7.610;2023-02-20T01:09:22;6.22;;;2.70;;
77544;SDS011;66672;50.328;7.610;2023-02-20T01:11:47;5.90;;;2.57;;
77544;SDS011;66672;50.328;7.610;2023-02-20T01:14:12;6.23;;;3.00;;
77544;SDS011;66672;50.328;7.610;2023-02-20T01:16:48;5.57;;;2.40;;
77544;SDS011;66672;50.328;7.610;2023-02-20T01:19:16;6.87;;;2.37;;
77544;SDS011;66672;50.328;7.610;2023-02-20T01:21:42;5.97;;;2.72;;
77544;SDS011;66672;50.328;7.610;2023-02-20T01:24:08;9.30;;;3.17;;
77544;SDS011;66672;50.328;7.610;2023-02-20T01:26:33;5.75;;;2.85;;
77544;SDS011;66672;50.328;7.610;2023-02-20T01:29:00;7.35;;;2.65;;
77544;SDS011;66672;50.328;7.610;2023-02-20T01:31:26;7.05;;;2.88;;
77544;SDS011;66672;50.328;7.610;2023-02-20T01:33:51;6.15;;;3.00;;
77544;SDS011;66672;50.328;7.610;2023-02-20T01:36:16;7.82;;;3.67;;
77544;SDS011;66672;50.328;7.610;2023-02-20T01:38:42;9.48;;;4.15;;
77544;SDS011;66672;50.328;7.610;2023-02-20T01:41:07;8.60;;;4.15;;
77544;SDS011;66672;50.328;7.610;2023-02-20T01:43:34;6.43;;;2.97;;
77544;SDS011;66672;50.328;7.610;2023-02-20T01:49:15;9.18;;;3.58;;
77544;SDS011;66672;50.328;7.610;2023-02-20T01:51:43;10.15;;;3.55;;
77544;SDS011;66672;50.328;7.610;2023-02-20T01:54:17;9.02;;;3.60;;
77544;SDS011;66672;50.328;7.610;2023-02-20T01:56:46;8.38;;;3.22;;
77544;SDS011;66672;50.328;7.610;2023-02-20T01:59:13;9.35;;;4.15;;
77544;SDS011;66672;50.328;7.610;2023-02-20T02:01:39;7.70;;;3.97;;
77544;SDS011;66672;50.328;7.610;2023-02-20T02:04:06;7.18;;;3.40;;
77544;SDS011;66672;50.328;7.610;2023-02-20T02:06:34;8.57;;;3.45;;
77544;SDS011;66672;50.328;7.610;2023-02-20T02:09:04;9.90;;;4.00;;
77544;SDS011;66672;50.328;7.610;2023-02-20T02:11:37;8.02;;;3.70;;
77544;SDS011;66672;50.328;7.610;2023-02-20T02:14:03;10.90;;;4.63;;
77544;SDS011;66672;50.328;7.610;2023-02-20T02:24:51;8.70;;;4.65;;
77544;SDS011;66672;50.328;7.610;2023-02-20T02:41:41;12.10;;;5.43;;
77544;SDS011;66672;50.328;7.610;2023-02-20T02:44:18;12.55;;;6.45;;
77544;SDS011;66672;50.328;7.610;2023-02-20T02:47:01;10.27;;;5.43;;
77544;SDS011;66672;50.328;7.610;2023-02-20T02:49:33;12.18;;;5.75;;
77544;SDS011;66672;50.328;7.610;2023-02-20T02:52:04;11.82;;;5.80;;
77544;SDS011;66672;50.328;7.610;2023-02-20T02:54:32;13.93;;;5.50;;
77544;SDS011;66672;50.328;7.610;2023-02-20T02:57:18;14.47;;;6.70;;
77544;SDS011;66672;50.328;7.610;2023-02-20T02:59:49;16.25;;;7.10;;
77544;SDS011;66672;50.328;7.610;2023-02-20T03:02:23;13.75;;;6.72;;
77544;SDS011;66672;50.328;7.610;2023-02-20T03:04:52;12.68;;;6.22;;
77544;SDS011;66672;50.328;7.610;2023-02-20T03:07:19;15.32;;;6.38;;
77544;SDS011;66672;50.328;7.610;2023-02-20T03:09:51;13.70;;;6.25;;
77544;SDS011;66672;50.328;7.610;2023-02-20T03:12:21;14.60;;;5.88;;
77544;SDS011;66672;50.328;7.610;2023-02-20T03:14:53;13.13;;;6.15;;
77544;SDS011;66672;50.328;7.610;2023-02-20T03:20:51;13.60;;;6.30;;
77544;SDS011;66672;50.328;7.610;2023-02-20T03:23:32;15.13;;;6.73;;
77544;SDS011;66672;50.328;7.610;2023-02-20T03:26:02;15.00;;;7.07;;
77544;SDS011;66672;50.328;7.610;2023-02-20T03:28:32;18.13;;;7.57;;
77544;SDS011;66672;50.328;7.610;2023-02-20T03:33:40;15.47;;;7.10;;
77544;SDS011;66672;50.328;7.610;2023-02-20T03:36:32;18.65;;;8.05;;
77544;SDS011;66672;50.328;7.610;2023-02-20T03:39:20;15.97;;;6.43;;
77544;SDS011;66672;50.328;7.610;2023-02-20T03:42:08;14.60;;;7.77;;
77544;SDS011;66672;50.328;7.610;2023-02-20T03:44:56;15.90;;;6.87;;
77544;SDS011;66672;50.328;7.610;2023-02-20T03:47:25;16.40;;;7.47;;
77544;SDS011;66672;50.328;7.610;2023-02-20T03:49:52;17.13;;;8.33;;
77544;SDS011;66672;50.328;7.610;2023-02-20T03:52:20;13.23;;;6.63;;
77544;SDS011;66672;50.328;7.610;2023-02-20T03:54:46;16.00;;;7.28;;
77544;SDS011;66672;50.328;7.610;2023-02-20T03:57:13;18.33;;;7.17;;
77544;SDS011;66672;50.328;7.610;2023-02-20T04:05:03;18.17;;;6.30;;
77544;SDS011;66672;50.328;7.610;2023-02-20T04:07:34;17.67;;;7.88;;
77544;SDS011;66672;50.328;7.610;2023-02-20T04:10:05;12.90;;;6.00;;
77544;SDS011;66672;50.328;7.610;2023-02-20T04:12:34;11.82;;;5.90;;
77544;SDS011;66672;50.328;7.610;2023-02-20T04:15:02;14.47;;;6.33;;
77544;SDS011;66672;50.328;7.610;2023-02-20T04:17:31;17.27;;;5.90;;
77544;SDS011;66672;50.328;7.610;2023-02-20T04:20:00;12.53;;;5.60;;
77544;SDS011;66672;50.328;7.610;2023-02-20T04:22:26;13.57;;;5.33;;
77544;SDS011;66672;50.328;7.610;2023-02-20T04:24:59;14.93;;;6.33;;
77544;SDS011;66672;50.328;7.610;2023-02-20T04:27:30;14.47;;;6.03;;
77544;SDS011;66672;50.328;7.610;2023-02-20T04:29:56;11.20;;;5.63;;
77544;SDS011;66672;50.328;7.610;2023-02-20T04:32:22;13.52;;;5.88;;
77544;SDS011;66672;50.328;7.610;2023-02-20T04:34:47;11.83;;;6.03;;
77544;SDS011;66672;50.328;7.610;2023-02-20T04:37:14;10.50;;;4.70;;
77544;SDS011;66672;50.328;7.610;2023-02-20T04:39:41;12.25;;;5.30;;
77544;SDS011;66672;50.328;7.610;2023-02-20T04:42:07;11.37;;;4.60;;
77544;SDS011;66672;50.328;7.610;2023-02-20T04:44:32;12.23;;;4.47;;
77544;SDS011;66672;50.328;7.610;2023-02-20T04:46:59;11.17;;;5.23;;
77544;SDS011;66672;50.328;7.610;2023-02-20T04:49:26;12.23;;;5.53;;
77544;SDS011;66672;50.328;7.610;2023-02-20T04:51:52;11.30;;;5.17;;
77544;SDS011;66672;50.328;7.610;2023-02-20T04:54:18;9.07;;;4.37;;
77544;SDS011;66672;50.328;7.610;2023-02-20T04:56:43;9.27;;;3.67;;
77544;SDS011;66672;50.328;7.610;2023-02-20T04:59:09;13.07;;;4.77;;
77544;SDS011;66672;50.328;7.610;2023-02-20T05:01:34;10.87;;;3.87;;
77544;SDS011;66672;50.328;7.610;2023-02-20T05:04:00;10.13;;;4.67;;
77544;SDS011;66672;50.328;7.610;2023-02-20T05:06:26;10.70;;;4.07;;
77544;SDS011;66672;50.328;7.610;2023-02-20T05:08:52;12.97;;;4.13;;
77544;SDS011;66672;50.328;7.610;2023-02-20T05:11:17;11.10;;;3.93;;
77544;SDS011;66672;50.328;7.610;2023-02-20T05:13:42;8.50;;;4.10;;
77544;SDS011;66672;50.328;7.610;2023-02-20T05:16:08;7.97;;;3.67;;
77544;SDS011;66672;50.328;7.610;2023-02-20T05:18:34;12.93;;;4.97;;
77544;SDS011;66672;50.328;7.610;2023-02-20T05:20:59;8.77;;;4.00;;
77544;SDS011;66672;50.328;7.610;2023-02-20T05:23:46;12.10;;;4.45;;
77544;SDS011;66672;50.328;7.610;2023-02-20T05:26:12;12.15;;;4.15;;
77544;SDS011;66672;50.328;7.610;2023-02-20T05:28:41;11.43;;;4.20;;
77544;SDS011;66672;50.328;7.610;2023-02-20T05:31:06;9.67;;;4.07;;
77544;SDS011;66672;50.328;7.610;2023-02-20T05:33:32;9.77;;;4.70;;
77544;SDS011;66672;50.328;7.610;2023-02-20T05:35:57;9.73;;;4.47;;
77544;SDS011;66672;50.328;7.610;2023-02-20T05:38:23;9.27;;;4.20;;
77544;SDS011;66672;50.328;7.610;2023-02-20T05:40:48;11.23;;;4.28;;
77544;SDS011;66672;50.328;7.610;2023-02-20T05:43:15;11.33;;;4.23;;
77544;SDS011;66672;50.328;7.610;2023-02-20T05:45:41;7.30;;;4.10;;
77544;SDS011;66672;50.328;7.610;2023-02-20T05:48:06;8.30;;;3.93;;
77544;SDS011;66672;50.328;7.610;2023-02-20T05:50:31;9.00;;;4.20;;
77544;SDS011;66672;50.328;7.610;2023-02-20T05:52:57;9.05;;;3.78;;
77544;SDS011;66672;50.328;7.610;2023-02-20T05:55:22;12.10;;;4.63;;
77544;SDS011;66672;50.328;7.610;2023-02-20T05:57:47;9.88;;;4.38;;
77544;SDS011;66672;50.328;7.610;2023-02-20T06:00:13;11.53;;;4.73;;
77544;SDS011;66672;50.328;7.610;2023-02-20T06:02:38;8.47;;;3.60;;
77544;SDS011;66672;50.328;7.610;2023-02-20T06:05:04;9.80;;;4.30;;
77544;SDS011;66672;50.328;7.610;2023-02-20T06:07:31;10.15;;;3.92;;
77544;SDS011;66672;50.328;7.610;2023-02-20T06:09:57;7.57;;;3.78;;
77544;SDS011;66672;50.328;7.610;2023-02-20T06:12:22;8.45;;;3.72;;
77544;SDS011;66672;50.328;7.610;2023-02-20T06:14:47;6.80;;;3.80;;
77544;SDS011;66672;50.328;7.610;2023-02-20T06:17:13;8.10;;;3.72;;
77544;SDS011;66672;50.328;7.610;2023-02-20T06:19:38;9.07;;;3.80;;
77544;SDS011;66672;50.328;7.610;2023-02-20T06:22:03;9.20;;;3.57;;
77544;SDS011;66672;50.328;7.610;2023-02-20T06:24:29;10.93;;;3.37;;
77544;SDS011;66672;50.328;7.610;2023-02-20T06:26:54;8.83;;;4.07;;
77544;SDS011;66672;50.328;7.610;2023-02-20T06:29:20;10.33;;;4.00;;
77544;SDS011;66672;50.328;7.610;2023-02-20T06:31:45;9.87;;;4.47;;
77544;SDS011;66672;50.328;7.610;2023-02-20T06:34:11;10.57;;;4.37;;
77544;SDS011;66672;50.328;7.610;2023-02-20T06:36:37;11.70;;;4.90;;
77544;SDS011;66672;50.328;7.610;2023-02-20T06:39:05;9.87;;;3.70;;
77544;SDS011;66672;50.328;7.610;2023-02-20T06:41:31;10.63;;;4.67;;
77544;SDS011;66672;50.328;7.610;2023-02-20T06:43:56;7.67;;;3.93;;
77544;SDS011;66672;50.328;7.610;2023-02-20T06:46:22;14.03;;;4.70;;
77544;SDS011;66672;50.328;7.610;2023-02-20T06:48:49;10.33;;;4.30;;
77544;SDS011;66672;50.328;7.610;2023-02-20T06:51:21;9.70;;;4.13;;
77544;SDS011;66672;50.328;7.610;2023-02-20T06:53:54;9.63;;;4.27;;
77544;SDS011;66672;50.328;7.610;2023-02-20T06:56:20;10.70;;;4.43;;
77544;SDS011;66672;50.328;7.610;2023-02-20T06:58:49;9.07;;;4.57;;
77544;SDS011;66672;50.328;7.610;2023-02-20T07:01:16;10.40;;;4.83;;
77544;SDS011;66672;50.328;7.610;2023-02-20T07:03:45;10.50;;;4.57;;
77544;SDS011;66672;50.328;7.610;2023-02-20T07:06:12;13.50;;;5.23;;
77544;SDS011;66672;50.328;7.610;2023-02-20T07:08:38;10.90;;;4.67;;
77544;SDS011;66672;50.328;7.610;2023-02-20T07:11:03;10.00;;;4.70;;
77544;SDS011;66672;50.328;7.610;2023-02-20T07:13:28;15.93;;;5.80;;
77544;SDS011;66672;50.328;7.610;2023-02-20T07:15:54;8.90;;;4.70;;
77544;SDS011;66672;50.328;7.610;2023-02-20T07:18:19;11.57;;;4.20;;
77544;SDS011;66672;50.328;7.610;2023-02-20T07:20:47;12.07;;;4.60;;
77544;SDS011;66672;50.328;7.610;2023-02-20T07:23:13;9.97;;;4.20;;
77544;SDS011;66672;50.328;7.610;2023-02-20T07:25:38;11.43;;;4.75;;
77544;SDS011;66672;50.328;7.610;2023-02-20T07:28:04;11.00;;;4.27;;
77544;SDS011;66672;50.328;7.610;2023-02-20T07:30:32;9.00;;;4.53;;
77544;SDS011;66672;50.328;7.610;2023-02-20T07:32:57;8.27;;;4.25;;
77544;SDS011;66672;50.328;7.610;2023-02-20T07:35:22;12.77;;;4.50;;
77544;SDS011;66672;50.328;7.610;2023-02-20T07:37:48;10.97;;;4.30;;
77544;SDS011;66672;50.328;7.610;2023-02-20T07:40:13;9.73;;;4.25;;
77544;SDS011;66672;50.328;7.610;2023-02-20T07:42:38;9.00;;;4.40;;
77544;SDS011;66672;50.328;7.610;2023-02-20T07:45:04;9.13;;;4.50;;
77544;SDS011;66672;50.328;7.610;2023-02-20T07:47:29;10.40;;;4.45;;
77544;SDS011;66672;50.328;7.610;2023-02-20T07:49:54;9.20;;;4.05;;
77544;SDS011;66672;50.328;7.610;2023-02-20T07:52:20;12.50;;;5.13;;
77544;SDS011;66672;50.328;7.610;2023-02-20T07:54:45;9.45;;;4.50;;
77544;SDS011;66672;50.328;7.610;2023-02-20T07:57:10;11.00;;;4.57;;
77544;SDS011;66672;50.328;7.610;2023-02-20T07:59:36;8.40;;;4.10;;
77544;SDS011;66672;50.328;7.610;2023-02-20T08:02:01;10.68;;;5.57;;
77544;SDS011;66672;50.328;7.610;2023-02-20T08:04:26;9.85;;;4.80;;
77544;SDS011;66672;50.328;7.610;2023-02-20T08:06:51;10.95;;;4.63;;
77544;SDS011;66672;50.328;7.610;2023-02-20T08:09:17;9.77;;;4.47;;
77544;SDS011;66672;50.328;7.610;2023-02-20T08:11:43;12.38;;;4.15;;
77544;SDS011;66672;50.328;7.610;2023-02-20T08:14:08;9.45;;;4.25;;
77544;SDS011;66672;50.328;7.610;2023-02-20T08:16:33;8.35;;;4.70;;
77544;SDS011;66672;50.328;7.610;2023-02-20T08:18:59;11.10;;;4.60;;
77544;SDS011;66672;50.328;7.610;2023-02-20T08:21:25;7.45;;;3.80;;
77544;SDS011;66672;50.328;7.610;2023-02-20T08:23:50;11.02;;;4.55;;
77544;SDS011;66672;50.328;7.610;2023-02-20T08:26:16;12.10;;;4.50;;
77544;SDS011;66672;50.328;7.610;2023-02-20T08:28:42;9.75;;;4.53;;
77544;SDS011;66672;50.328;7.610;2023-02-20T08:31:07;8.20;;;4.18;;
77544;SDS011;66672;50.328;7.610;2023-02-20T08:33:33;7.57;;;4.28;;
77544;SDS011;66672;50.328;7.610;2023-02-20T08:35:58;14.40;;;4.60;;
77544;SDS011;66672;50.328;7.610;2023-02-20T08:38:25;8.98;;;4.40;;
77544;SDS011;66672;50.328;7.610;2023-02-20T08:40:53;10.05;;;4.57;;
77544;SDS011;66672;50.328;7.610;2023-02-20T08:43:18;9.98;;;4.75;;
77544;SDS011;66672;50.328;7.610;2023-02-20T08:45:44;9.05;;;4.28;;
77544;SDS011;66672;50.328;7.610;2023-02-20T08:48:09;6.68;;;3.75;;
77544;SDS011;66672;50.328;7.610;2023-02-20T08:50:35;10.02;;;4.28;;
77544;SDS011;66672;50.328;7.610;2023-02-20T08:53:00;12.02;;;4.55;;
77544;SDS011;66672;50.328;7.610;2023-02-20T08:55:26;11.77;;;4.68;;
77544;SDS011;66672;50.328;7.610;2023-02-20T08:57:51;12.52;;;4.93;;
77544;SDS011;66672;50.328;7.610;2023-02-20T09:00:17;9.20;;;4.53;;
77544;SDS011;66672;50.328;7.610;2023-02-20T09:02:43;8.98;;;4.70;;
77544;SDS011;66672;50.328;7.610;2023-02-20T09:05:11;10.70;;;4.47;;
77544;SDS011;66672;50.328;7.610;2023-02-20T09:07:36;8.63;;;4.78;;
77544;SDS011;66672;50.328;7.610;2023-02-20T09:10:02;8.98;;;4.28;;
77544;SDS011;66672;50.328;7.610;2023-02-20T09:12:28;8.82;;;4.55;;
77544;SDS011;66672;50.328;7.610;2023-02-20T09:14:54;11.75;;;5.20;;
77544;SDS011;66672;50.328;7.610;2023-02-20T09:17:20;9.23;;;4.15;;
77544;SDS011;66672;50.328;7.610;2023-02-20T09:19:45;9.68;;;5.00;;
77544;SDS011;66672;50.328;7.610;2023-02-20T09:22:10;10.10;;;4.85;;
77544;SDS011;66672;50.328;7.610;2023-02-20T09:24:36;8.85;;;3.60;;
77544;SDS011;66672;50.328;7.610;2023-02-20T09:27:01;12.05;;;5.22;;
77544;SDS011;66672;50.328;7.610;2023-02-20T09:29:28;11.68;;;5.35;;
77544;SDS011;66672;50.328;7.610;2023-02-20T09:31:54;12.15;;;4.22;;
77544;SDS011;66672;50.328;7.610;2023-02-20T09:34:19;10.18;;;5.50;;
77544;SDS011;66672;50.328;7.610;2023-02-20T09:36:45;9.10;;;5.43;;
77544;SDS011;66672;50.328;7.610;2023-02-20T09:39:11;9.38;;;3.60;;
77544;SDS011;66672;50.328;7.610;2023-02-20T09:46:41;9.80;;;4.72;;
77544;SDS011;66672;50.328;7.610;2023-02-20T09:49:11;11.05;;;4.60;;
77544;SDS011;66672;50.328;7.610;2023-02-20T09:52:04;9.85;;;4.22;;
77544;SDS011;66672;50.328;7.610;2023-02-20T09:54:36;8.35;;;4.28;;
77544;SDS011;66672;50.328;7.610;2023-02-20T09:57:12;10.27;;;4.93;;
77544;SDS011;66672;50.328;7.610;2023-02-20T10:04:46;9.45;;;4.90;;
77544;SDS011;66672;50.328;7.610;2023-02-20T10:07:15;11.25;;;5.15;;
77544;SDS011;66672;50.328;7.610;2023-02-20T10:09:47;12.68;;;4.70;;
77544;SDS011;66672;50.328;7.610;2023-02-20T10:12:30;12.88;;;5.68;;
77544;SDS011;66672;50.328;7.610;2023-02-20T10:25:39;8.60;;;4.50;;
77544;SDS011;66672;50.328;7.610;2023-02-20T10:28:11;9.48;;;4.90;;
77544;SDS011;66672;50.328;7.610;2023-02-20T10:31:25;9.98;;;4.80;;
77544;SDS011;66672;50.328;7.610;2023-02-20T10:36:37;10.63;;;4.93;;
77544;SDS011;66672;50.328;7.610;2023-02-20T10:39:13;13.05;;;5.07;;
77544;SDS011;66672;50.328;7.610;2023-02-20T10:41:51;8.95;;;4.88;;
77544;SDS011;66672;50.328;7.610;2023-02-20T10:47:15;8.60;;;3.42;;
77544;SDS011;66672;50.328;7.610;2023-02-20T10:52:53;9.88;;;3.50;;
77544;SDS011;66672;50.328;7.610;2023-02-20T10:56:10;8.55;;;3.88;;
77544;SDS011;66672;50.328;7.610;2023-02-20T11:01:05;8.73;;;4.10;;
77544;SDS011;66672;50.328;7.610;2023-02-20T11:03:43;10.75;;;4.60;;
77544;SDS011;66672;50.328;7.610;2023-02-20T11:06:13;6.75;;;2.92;;
77544;SDS011;66672;50.328;7.610;2023-02-20T11:08:42;8.18;;;4.35;;
77544;SDS011;66672;50.328;7.610;2023-02-20T11:11:18;8.13;;;3.80;;
77544;SDS011;66672;50.328;7.610;2023-02-20T11:13:47;12.15;;;4.88;;
77544;SDS011;66672;50.328;7.610;2023-02-20T11:16:18;11.77;;;4.18;;
77544;SDS011;66672;50.328;7.610;2023-02-20T11:18:46;7.90;;;3.78;;
77544;SDS011;66672;50.328;7.610;2023-02-20T11:21:36;12.05;;;3.95;;
77544;SDS011;66672;50.328;7.610;2023-02-20T11:24:19;12.20;;;4.78;;
77544;SDS011;66672;50.328;7.610;2023-02-20T11:26:48;10.52;;;4.60;;
77544;SDS011;66672;50.328;7.610;2023-02-20T11:29:18;10.98;;;4.80;;
77544;SDS011;66672;50.328;7.610;2023-02-20T11:31:45;12.43;;;6.03;;
77544;SDS011;66672;50.328;7.610;2023-02-20T11:34:19;8.77;;;4.43;;
77544;SDS011;66672;50.328;7.610;2023-02-20T11:36:48;11.45;;;4.78;;
77544;SDS011;66672;50.328;7.610;2023-02-20T11:39:24;12.10;;;5.18;;
77544;SDS011;66672;50.328;7.610;2023-02-20T11:42:11;10.50;;;4.93;;
77544;SDS011;66672;50.328;7.610;2023-02-20T11:44:40;16.95;;;5.85;;
77544;SDS011;66672;50.328;7.610;2023-02-20T11:47:10;11.38;;;5.03;;
77544;SDS011;66672;50.328;7.610;2023-02-20T11:49:46;10.98;;;4.90;;
77544;SDS011;66672;50.328;7.610;2023-02-20T11:52:17;11.90;;;5.22;;
77544;SDS011;66672;50.328;7.610;2023-02-20T11:54:44;14.43;;;6.00;;
77544;SDS011;66672;50.328;7.610;2023-02-20T11:59:40;12.32;;;5.00;;
77544;SDS011;66672;50.328;7.610;2023-02-20T12:02:11;13.15;;;5.63;;
77544;SDS011;66672;50.328;7.610;2023-02-20T12:04:41;13.48;;;5.47;;
77544;SDS011;66672;50.328;7.610;2023-02-20T12:07:28;12.15;;;5.30;;
77544;SDS011;66672;50.328;7.610;2023-02-20T12:10:01;10.45;;;4.70;;
77544;SDS011;66672;50.328;7.610;2023-02-20T12:12:56;12.68;;;4.55;;
77544;SDS011;66672;50.328;7.610;2023-02-20T12:15:23;11.05;;;5.10;;
77544;SDS011;66672;50.328;7.610;2023-02-20T12:17:58;11.63;;;5.03;;
77544;SDS011;66672;50.328;7.610;2023-02-20T12:20:28;9.68;;;4.13;;
77544;SDS011;66672;50.328;7.610;2023-02-20T12:23:17;9.80;;;4.88;;
77544;SDS011;66672;50.328;7.610;2023-02-20T12:29:21;10.70;;;4.68;;
77544;SDS011;66672;50.328;7.610;2023-02-20T12:40:26;13.38;;;4.78;;
77544;SDS011;66672;50.328;7.610;2023-02-20T12:43:08;10.38;;;4.07;;
77544;SDS011;66672;50.328;7.610;2023-02-20T12:49:05;8.90;;;3.95;;
77544;SDS011;66672;50.328;7.610;2023-02-20T12:54:23;10.07;;;3.90;;
77544;SDS011;66672;50.328;7.610;2023-02-20T12:57:07;10.68;;;5.00;;
77544;SDS011;66672;50.328;7.610;2023-02-20T12:59:56;7.13;;;3.15;;
77544;SDS011;66672;50.328;7.610;2023-02-20T13:02:34;8.35;;;3.50;;
77544;SDS011;66672;50.328;7.610;2023-02-20T13:05:04;7.70;;;2.38;;
77544;SDS011;66672;50.328;7.610;2023-02-20T13:07:34;10.48;;;3.63;;
77544;SDS011;66672;50.328;7.610;2023-02-20T13:10:16;7.43;;;3.17;;
77544;SDS011;66672;50.328;7.610;2023-02-20T13:12:47;7.05;;;3.90;;
77544;SDS011;66672;50.328;7.610;2023-02-20T13:18:16;8.37;;;3.40;;
77544;SDS011;66672;50.328;7.610;2023-02-20T13:21:05;9.38;;;3.50;;
77544;SDS011;66672;50.328;7.610;2023-02-20T13:23:35;10.38;;;4.03;;
77544;SDS011;66672;50.328;7.610;2023-02-20T13:26:02;9.75;;;3.83;;
77544;SDS011;66672;50.328;7.610;2023-02-20T13:28:48;7.90;;;3.17;;
77544;SDS011;66672;50.328;7.610;2023-02-20T13:31:17;8.35;;;3.80;;
77544;SDS011;66672;50.328;7.610;2023-02-20T13:33:49;6.72;;;3.38;;
77544;SDS011;66672;50.328;7.610;2023-02-20T13:39:54;7.60;;;3.28;;
77544;SDS011;66672;50.328;7.610;2023-02-20T13:42:03;7.30;;;3.03;;
77544;SDS011;66672;50.328;7.610;2023-02-20T13:44:49;8.95;;;3.20;;
77544;SDS011;66672;50.328;7.610;2023-02-20T13:54:53;7.70;;;2.83;;
77544;SDS011;66672;50.328;7.610;2023-02-20T13:57:19;7.53;;;3.58;;
77544;SDS011;66672;50.328;7.610;2023-02-20T13:59:46;9.20;;;3.17;;
77544;SDS011;66672;50.328;7.610;2023-02-20T14:02:16;5.88;;;2.40;;
77544;SDS011;66672;50.328;7.610;2023-02-20T14:04:55;9.05;;;2.80;;
77544;SDS011;66672;50.328;7.610;2023-02-20T14:07:27;10.30;;;3.60;;
77544;SDS011;66672;50.328;7.610;2023-02-20T14:10:04;7.95;;;3.15;;
77544;SDS011;66672;50.328;7.610;2023-02-20T14:12:42;6.50;;;3.00;;
77544;SDS011;66672;50.328;7.610;2023-02-20T14:15:08;8.88;;;3.22;;
77544;SDS011;66672;50.328;7.610;2023-02-20T14:17:34;7.00;;;3.05;;
77544;SDS011;66672;50.328;7.610;2023-02-20T14:20:04;7.60;;;2.97;;
77544;SDS011;66672;50.328;7.610;2023-02-20T14:22:36;8.75;;;3.20;;
77544;SDS011;66672;50.328;7.610;2023-02-20T14:27:34;6.78;;;3.03;;
77544;SDS011;66672;50.328;7.610;2023-02-20T14:32:45;7.32;;;3.00;;
77544;SDS011;66672;50.328;7.610;2023-02-20T14:38:06;7.03;;;3.05;;
77544;SDS011;66672;50.328;7.610;2023-02-20T14:40:48;7.72;;;2.67;;
77544;SDS011;66672;50.328;7.610;2023-02-20T14:43:24;8.32;;;3.25;;
77544;SDS011;66672;50.328;7.610;2023-02-20T14:46:07;8.32;;;3.28;;
77544;SDS011;66672;50.328;7.610;2023-02-20T14:48:45;8.75;;;2.78;;
77544;SDS011;66672;50.328;7.610;2023-02-20T14:53:36;7.28;;;3.05;;
77544;SDS011;66672;50.328;7.610;2023-02-20T14:56:11;8.40;;;2.88;;
77544;SDS011;66672;50.328;7.610;2023-02-20T14:58:39;6.05;;;1.75;;
77544;SDS011;66672;50.328;7.610;2023-02-20T15:01:14;6.97;;;3.20;;
77544;SDS011;66672;50.328;7.610;2023-02-20T15:03:42;5.63;;;2.85;;
77544;SDS011;66672;50.328;7.610;2023-02-20T15:06:17;5.53;;;2.97;;
77544;SDS011;66672;50.328;7.610;2023-02-20T15:08:43;10.57;;;2.97;;
77544;SDS011;66672;50.328;7.610;2023-02-20T15:11:09;6.53;;;2.17;;
77544;SDS011;66672;50.328;7.610;2023-02-20T15:13:37;8.15;;;3.25;;
77544;SDS011;66672;50.328;7.610;2023-02-20T15:18:38;6.18;;;3.00;;
77544;SDS011;66672;50.328;7.610;2023-02-20T15:21:05;6.88;;;2.65;;
77544;SDS011;66672;50.328;7.610;2023-02-20T15:23:32;9.18;;;3.08;;
77544;SDS011;66672;50.328;7.610;2023-02-20T15:26:24;7.05;;;2.60;;
77544;SDS011;66672;50.328;7.610;2023-02-20T15:29:37;5.97;;;2.30;;
77544;SDS011;66672;50.328;7.610;2023-02-20T15:31:45;5.63;;;2.30;;
77544;SDS011;66672;50.328;7.610;2023-02-20T15:34:23;9.50;;;3.25;;
77544;SDS011;66672;50.328;7.610;2023-02-20T15:36:50;10.48;;;2.38;;
77544;SDS011;66672;50.328;7.610;2023-02-20T15:39:16;5.97;;;2.33;;
77544;SDS011;66672;50.328;7.610;2023-02-20T15:41:42;4.63;;;1.95;;
77544;SDS011;66672;50.328;7.610;2023-02-20T15:44:08;4.78;;;1.88;;
77544;SDS011;66672;50.328;7.610;2023-02-20T15:46:34;4.43;;;1.55;;
77544;SDS011;66672;50.328;7.610;2023-02-20T15:49:00;7.60;;;2.97;;
77544;SDS011;66672;50.328;7.610;2023-02-20T15:51:26;6.25;;;2.35;;
77544;SDS011;66672;50.328;7.610;2023-02-20T15:53:51;6.65;;;2.60;;
77544;SDS011;66672;50.328;7.610;2023-02-20T15:56:17;6.50;;;2.33;;
77544;SDS011;66672;50.328;7.610;2023-02-20T15:58:44;5.78;;;2.30;;
77544;SDS011;66672;50.328;7.610;2023-02-20T16:01:11;7.10;;;2.80;;
77544;SDS011;66672;50.328;7.610;2023-02-20T16:03:37;6.20;;;2.70;;
77544;SDS011;66672;50.328;7.610;2023-02-20T16:06:02;6.40;;;2.42;;
77544;SDS011;66672;50.328;7.610;2023-02-20T16:08:27;5.78;;;2.53;;
77544;SDS011;66672;50.328;7.610;2023-02-20T16:10:53;5.22;;;2.08;;
77544;SDS011;66672;50.328;7.610;2023-02-20T16:13:27;7.60;;;2.38;;
77544;SDS011;66672;50.328;7.610;2023-02-20T16:18:45;7.72;;;2.90;;
77544;SDS011;66672;50.328;7.610;2023-02-20T16:21:12;7.70;;;2.58;;
77544;SDS011;66672;50.328;7.610;2023-02-20T16:23:39;7.90;;;2.35;;
77544;SDS011;66672;50.328;7.610;2023-02-20T16:26:05;7.70;;;2.42;;
77544;SDS011;66672;50.328;7.610;2023-02-20T16:28:31;7.43;;;2.53;;
77544;SDS011;66672;50.328;7.610;2023-02-20T16:30:57;6.15;;;2.50;;
77544;SDS011;66672;50.328;7.610;2023-02-20T16:33:22;7.60;;;2.47;;
77544;SDS011;66672;50.328;7.610;2023-02-20T16:35:49;8.73;;;2.90;;
77544;SDS011;66672;50.328;7.610;2023-02-20T16:38:15;5.65;;;2.40;;
77544;SDS011;66672;50.328;7.610;2023-02-20T16:40:40;7.85;;;2.60;;
77544;SDS011;66672;50.328;7.610;2023-02-20T16:43:06;5.60;;;2.22;;
77544;SDS011;66672;50.328;7.610;2023-02-20T16:45:32;6.60;;;2.45;;
77544;SDS011;66672;50.328;7.610;2023-02-20T16:47:58;6.45;;;2.60;;
77544;SDS011;66672;50.328;7.610;2023-02-20T16:50:24;5.35;;;1.75;;
77544;SDS011;66672;50.328;7.610;2023-02-20T16:52:53;7.82;;;2.65;;
77544;SDS011;66672;50.328;7.610;2023-02-20T16:57:55;8.23;;;2.58;;